Time;durP1;ratioP1;P1;durP2;ratioP2;P2;SDS_P1;SDS_P2;PMS_P1;PMS_P2;Temp;Humidity;BMP_temperature;BMP_pressure;BME280_temperature;BME280_humidity;BME280_pressure;Samples;Min_cycle;Max_cycle;Signal;HPM_P1;HPM_P2
2022/08/27 00:00:21;;;;;;;3.03;2.78;;;23.80;75.30;;;;;;5032527;28;20207;-71
2022/08/27 00:02:47;;;;;;;3.30;3.00;;;23.80;76.00;;;;;;5032474;28;20449;-71
2022/08/27 00:05:16;;;;;;;3.15;2.95;;;23.80;76.00;;;;;;5031487;28;20226;-71
2022/08/27 00:07:43;;;;;;;3.17;2.97;;;23.80;75.30;;;;;;5030711;28;20187;-70
2022/08/27 00:10:15;;;;;;;3.00;2.80;;;23.80;75.20;;;;;;5031425;28;20211;-71
2022/08/27 00:12:41;;;;;;;2.72;2.53;;;23.80;75.20;;;;;;5032718;28;20170;-71
2022/08/27 00:15:08;;;;;;;3.45;3.15;;;23.80;75.30;;;;;;5032374;28;20258;-71
2022/08/27 00:17:35;;;;;;;2.92;2.72;;;23.80;75.20;;;;;;5030678;28;20203;-70
2022/08/27 00:20:03;;;;;;;3.30;3.10;;;23.80;75.30;;;;;;5031154;28;20214;-70
2022/08/27 00:22:29;;;;;;;3.22;3.00;;;23.80;75.20;;;;;;5014697;28;20245;-71
2022/08/27 00:24:55;;;;;;;2.92;2.72;;;23.80;75.20;;;;;;5017482;28;20187;-71
2022/08/27 00:27:21;;;;;;;3.03;2.72;;;23.80;75.20;;;;;;5037165;28;20183;-71
2022/08/27 00:29:47;;;;;;;3.20;2.90;;;23.80;75.20;;;;;;5037507;28;20214;-71
2022/08/27 00:32:14;;;;;;;3.00;2.80;;;23.80;75.20;;;;;;5037539;28;20193;-71
2022/08/27 00:34:39;;;;;;;3.47;3.17;;;23.80;75.10;;;;;;5037298;28;20180;-71
2022/08/27 00:37:07;;;;;;;3.22;3.03;;;23.80;75.10;;;;;;5037783;28;20265;-71
2022/08/27 00:39:35;;;;;;;3.08;2.88;;;23.80;75.10;;;;;;5036994;28;20214;-70
2022/08/27 00:42:03;;;;;;;3.22;3.03;;;23.80;75.10;;;;;;5037635;28;20599;-71
2022/08/27 00:44:30;;;;;;;2.67;2.53;;;23.80;75.10;;;;;;5038488;28;20213;-71
2022/08/27 00:47:04;;;;;;;3.15;2.92;;;23.80;75.10;;;;;;5037604;28;20183;-71
2022/08/27 00:49:46;;;;;;;3.83;3.30;;;23.80;75.10;;;;;;5020252;28;20202;-70
2022/08/27 00:52:21;;;;;;;3.08;2.83;;;23.80;75.10;;;;;;5037397;28;20186;-70
2022/08/27 00:54:52;;;;;;;3.03;2.83;;;23.80;75.00;;;;;;5037322;28;20178;-71
2022/08/27 00:57:18;;;;;;;3.50;3.25;;;23.80;75.10;;;;;;5020624;28;20179;-71
2022/08/27 00:59:45;;;;;;;3.10;2.90;;;23.80;75.00;;;;;;5020789;28;20199;-71
2022/08/27 01:02:17;;;;;;;3.08;2.85;;;23.80;75.10;;;;;;5037261;28;20671;-71
2022/08/27 01:05:05;;;;;;;3.00;2.80;;;23.80;75.00;;;;;;5037518;28;20625;-71
2022/08/27 01:07:37;;;;;;;2.83;2.63;;;23.80;75.00;;;;;;5037971;28;20167;-71
2022/08/27 01:10:07;;;;;;;2.83;2.63;;;23.70;75.00;;;;;;5037340;28;20199;-71
2022/08/27 01:12:34;;;;;;;3.15;2.95;;;23.80;75.00;;;;;;5020752;28;20190;-70
2022/08/27 01:15:05;;;;;;;3.40;3.10;;;23.80;75.00;;;;;;5038455;28;20183;-70
2022/08/27 01:17:32;;;;;;;3.55;3.25;;;23.70;74.90;;;;;;5020070;28;20564;-70
2022/08/27 01:20:04;;;;;;;3.00;2.70;;;23.70;74.90;;;;;;5037488;28;20237;-70
2022/08/27 01:23:12;;;;;;;3.08;2.78;;;23.70;75.00;;;;;;5020719;28;20250;-71
2022/08/27 01:25:42;;;;;;;3.20;2.90;;;23.80;75.00;;;;;;5036964;28;20198;-70
2022/08/27 01:28:10;;;;;;;3.58;3.28;;;23.70;74.90;;;;;;5036264;28;20222;-70
2022/08/27 01:30:36;;;;;;;3.20;2.95;;;23.70;74.90;;;;;;5037426;28;20238;-71
2022/08/27 01:33:10;;;;;;;3.78;3.13;;;23.70;75.00;;;;;;5036789;28;20191;-71
2022/08/27 01:35:36;;;;;;;3.10;2.90;;;23.70;74.90;;;;;;5020281;28;20190;-71
2022/08/27 01:38:03;;;;;;;3.67;3.38;;;23.70;74.90;;;;;;5049174;28;20693;-70
2022/08/27 01:40:29;;;;;;;2.80;2.60;;;23.70;74.90;;;;;;5033801;28;20210;-71
2022/08/27 01:42:56;;;;;;;3.55;3.22;;;23.70;74.90;;;;;;5033803;28;20690;-71
2022/08/27 01:45:28;;;;;;;3.08;2.88;;;23.70;74.90;;;;;;5035308;28;20179;-71
2022/08/27 01:47:54;;;;;;;3.22;2.92;;;23.70;74.90;;;;;;5033371;28;20176;-70
2022/08/27 01:50:30;;;;;;;3.13;2.92;;;23.70;74.90;;;;;;5033639;28;20256;-71
2022/08/27 01:53:01;;;;;;;3.30;2.95;;;23.70;74.90;;;;;;5034911;28;20175;-71
2022/08/27 01:55:27;;;;;;;3.08;2.88;;;23.70;74.90;;;;;;5033713;28;20571;-71
2022/08/27 01:57:54;;;;;;;3.35;3.10;;;23.70;74.90;;;;;;5033134;28;20179;-70
2022/08/27 02:00:32;;;;;;;3.17;2.97;;;23.70;74.90;;;;;;5034676;28;20211;-71
2022/08/27 02:02:58;;;;;;;3.20;2.97;;;23.70;74.90;;;;;;5034706;28;20620;-71
2022/08/27 02:05:27;;;;;;;3.38;3.08;;;23.70;74.90;;;;;;5033499;28;20596;-71
2022/08/27 02:07:54;;;;;;;2.90;2.70;;;23.70;75.00;;;;;;5032982;28;20183;-70
2022/08/27 02:10:34;;;;;;;3.08;2.88;;;23.70;74.90;;;;;;5033360;28;20286;-70
2022/08/27 02:13:00;;;;;;;3.03;2.83;;;23.70;74.90;;;;;;5031147;28;20220;-70
2022/08/27 02:15:27;;;;;;;3.17;2.97;;;23.70;74.90;;;;;;5033434;28;20183;-70
2022/08/27 02:17:54;;;;;;;3.15;2.95;;;23.70;74.90;;;;;;5032699;28;20198;-70
2022/08/27 02:20:22;;;;;;;3.42;3.22;;;23.70;74.90;;;;;;5034357;28;20273;-71
2022/08/27 02:22:48;;;;;;;3.20;2.85;;;23.70;74.90;;;;;;5016919;28;20206;-70
2022/08/27 02:25:18;;;;;;;3.15;2.95;;;23.70;74.90;;;;;;5016672;28;20171;-70
2022/08/27 02:27:47;;;;;;;3.75;3.45;;;23.70;74.90;;;;;;5033777;28;20168;-71
2022/08/27 02:30:19;;;;;;;2.97;2.78;;;23.70;75.00;;;;;;5034155;28;20260;-71
2022/08/27 02:32:46;;;;;;;3.15;2.88;;;23.70;75.00;;;;;;5033919;28;20187;-71
2022/08/27 02:35:15;;;;;;;3.05;2.75;;;23.70;75.00;;;;;;5032899;28;20199;-71
2022/08/27 02:37:43;;;;;;;3.60;3.17;;;23.70;75.00;;;;;;5032351;28;20171;-70
2022/08/27 02:40:15;;;;;;;2.88;2.67;;;23.70;75.00;;;;;;5032803;28;20207;-71
2022/08/27 02:42:43;;;;;;;2.75;2.55;;;23.70;75.00;;;;;;5033774;28;20195;-70
2022/08/27 02:45:10;;;;;;;2.90;2.70;;;23.70;75.00;;;;;;5033900;28;20225;-71
2022/08/27 02:47:36;;;;;;;2.97;2.78;;;23.70;75.00;;;;;;5031426;28;20191;-70
2022/08/27 02:50:02;;;;;;;2.78;2.58;;;23.70;75.00;;;;;;5048592;28;20206;-70
2022/08/27 02:52:29;;;;;;;3.13;2.92;;;23.70;75.00;;;;;;5016297;28;20718;-71
2022/08/27 02:54:57;;;;;;;3.10;2.90;;;23.70;75.00;;;;;;5032507;28;20182;-71
2022/08/27 02:57:24;;;;;;;2.90;2.70;;;23.70;75.00;;;;;;5032420;28;20183;-72
2022/08/27 02:59:51;;;;;;;3.38;3.13;;;23.70;75.00;;;;;;5015408;28;20203;-71
2022/08/27 03:02:19;;;;;;;3.05;2.85;;;23.70;75.00;;;;;;5032587;28;20186;-71
2022/08/27 03:04:46;;;;;;;3.15;2.85;;;23.60;74.90;;;;;;5032318;28;20261;-71
2022/08/27 03:07:13;;;;;;;3.28;2.97;;;23.70;75.00;;;;;;5032372;28;20186;-71
2022/08/27 03:09:39;;;;;;;3.47;3.10;;;23.60;74.90;;;;;;5031673;28;20333;-71
2022/08/27 03:12:05;;;;;;;3.10;2.90;;;23.70;75.00;;;;;;5032498;28;20269;-71
2022/08/27 03:14:31;;;;;;;3.15;2.85;;;23.60;75.00;;;;;;5032489;28;20209;-72
2022/08/27 03:18:16;;;;;;;3.78;3.47;;;23.70;75.00;;;;;;5032001;28;20187;-71
2022/08/27 03:19:43;;;;;;;3.13;2.92;;;23.60;75.00;;;;;;5031289;28;20758;-71
2022/08/27 03:22:11;;;;;;;3.33;3.03;;;23.60;74.90;;;;;;5048357;28;20215;-70
2022/08/27 03:24:39;;;;;;;3.10;2.90;;;23.70;75.00;;;;;;5031725;28;20201;-71
2022/08/27 03:27:07;;;;;;;2.88;2.67;;;23.60;75.00;;;;;;5032140;28;20183;-70
2022/08/27 03:29:34;;;;;;;2.92;2.72;;;23.60;75.00;;;;;;5032457;28;20203;-71
2022/08/27 03:32:00;;;;;;;3.20;2.90;;;23.60;74.90;;;;;;5032985;28;20183;-71
2022/08/27 03:34:26;;;;;;;3.25;2.85;;;23.60;75.00;;;;;;5031472;28;20649;-71
2022/08/27 03:36:52;;;;;;;3.13;2.83;;;23.60;75.00;;;;;;5031739;28;20547;-71
2022/08/27 03:39:18;;;;;;;3.30;3.00;;;23.60;75.00;;;;;;5030736;28;20210;-70
2022/08/27 03:41:44;;;;;;;2.90;2.70;;;23.60;75.00;;;;;;5031769;28;20191;-71
2022/08/27 03:44:10;;;;;;;3.13;2.90;;;23.60;75.10;;;;;;5015305;28;20235;-71
2022/08/27 03:46:37;;;;;;;3.33;3.13;;;23.60;75.10;;;;;;5031709;28;20191;-71
2022/08/27 03:49:03;;;;;;;3.08;2.88;;;23.60;75.10;;;;;;5031113;28;20203;-71
2022/08/27 03:51:29;;;;;;;3.28;3.08;;;23.60;75.20;;;;;;5031457;28;20677;-71
2022/08/27 03:53:55;;;;;;;3.40;3.05;;;23.60;75.10;;;;;;5015293;28;20183;-71
2022/08/27 03:56:20;;;;;;;3.75;3.45;;;23.70;75.20;;;;;;5031760;28;20202;-71
2022/08/27 03:58:46;;;;;;;4.07;3.78;;;23.60;75.10;;;;;;5030776;28;20583;-70
2022/08/27 04:01:12;;;;;;;3.95;3.65;;;23.70;75.20;;;;;;5014910;28;20175;-71
2022/08/27 04:03:38;;;;;;;3.80;3.50;;;23.60;75.20;;;;;;5014678;28;20572;-71
2022/08/27 04:06:04;;;;;;;3.90;3.60;;;23.60;75.10;;;;;;5014733;28;20187;-71
2022/08/27 04:08:30;;;;;;;3.70;3.40;;;23.60;75.30;;;;;;5030551;28;20214;-71
2022/08/27 04:10:56;;;;;;;4.00;3.70;;;23.60;75.30;;;;;;5031423;28;20183;-70
2022/08/27 04:13:22;;;;;;;3.58;3.10;;;23.60;75.10;;;;;;5014880;28;20222;-71
2022/08/27 04:15:51;;;;;;;3.65;3.40;;;23.70;75.30;;;;;;5031201;28;20203;-71
2022/08/27 04:18:18;;;;;;;3.75;3.45;;;23.60;75.30;;;;;;5014362;28;20195;-70
2022/08/27 04:20:50;;;;;;;3.45;3.08;;;23.60;75.20;;;;;;5031231;28;20188;-71
2022/08/27 04:23:16;;;;;;;3.83;3.53;;;23.60;75.20;;;;;;5032209;28;20625;-71
2022/08/27 04:25:43;;;;;;;3.10;2.90;;;23.60;75.20;;;;;;5031091;28;20271;-71
2022/08/27 04:28:11;;;;;;;3.28;2.97;;;23.60;75.20;;;;;;5030430;28;20185;-70
2022/08/27 04:30:43;;;;;;;3.67;3.40;;;23.60;75.20;;;;;;5030969;28;20193;-70
2022/08/27 04:33:13;;;;;;;3.70;3.40;;;23.60;75.40;;;;;;5031014;28;20194;-71
2022/08/27 04:35:40;;;;;;;4.00;3.70;;;23.70;75.50;;;;;;5032116;28;20180;-71
2022/08/27 04:38:06;;;;;;;4.07;3.72;;;23.60;75.40;;;;;;5031571;28;20237;-70
2022/08/27 04:43:16;;;;;;;5.28;4.72;;;23.60;75.40;;;;;;5031926;28;20230;-71
2022/08/27 04:45:45;;;;;;;5.05;4.57;;;23.60;75.40;;;;;;5030742;28;20211;-71
2022/08/27 04:48:14;;;;;;;4.55;4.20;;;23.60;75.40;;;;;;5031450;28;20238;-70
2022/08/27 04:50:47;;;;;;;5.43;4.93;;;23.60;75.50;;;;;;5025955;28;20267;-70
2022/08/27 04:53:15;;;;;;;5.13;4.30;;;23.60;75.50;;;;;;5011050;28;20172;-70
2022/08/27 04:55:51;;;;;;;4.93;4.43;;;23.60;75.50;;;;;;5027328;28;20184;-70
2022/08/27 04:58:19;;;;;;;5.55;4.65;;;23.60;75.50;;;;;;5010446;28;20168;-71
2022/08/27 05:01:00;;;;;;;4.65;4.25;;;23.60;75.50;;;;;;5012206;28;20180;-71
2022/08/27 05:03:27;;;;;;;5.18;4.70;;;23.60;75.60;;;;;;5027416;28;20202;-71
2022/08/27 05:06:01;;;;;;;5.20;4.70;;;23.60;75.70;;;;;;5027446;28;20207;-71
2022/08/27 05:08:27;;;;;;;5.32;4.63;;;23.60;75.80;;;;;;5027190;28;20593;-71
2022/08/27 05:10:53;;;;;;;5.20;4.80;;;23.60;75.70;;;;;;5027471;28;20275;-71
2022/08/27 05:13:22;;;;;;;5.60;5.10;;;23.60;75.70;;;;;;5040781;28;20282;-71
2022/08/27 05:15:49;;;;;;;5.30;4.85;;;23.60;75.70;;;;;;5035878;28;20190;-71
2022/08/27 05:18:15;;;;;;;5.18;4.78;;;23.60;75.60;;;;;;5050510;28;20711;-70
2022/08/27 05:20:47;;;;;;;5.30;4.80;;;23.60;75.80;;;;;;5035927;28;20184;-72
2022/08/27 05:23:17;;;;;;;5.10;4.60;;;23.60;75.70;;;;;;5034267;28;20211;-72
2022/08/27 05:25:47;;;;;;;4.55;4.20;;;23.60;75.90;;;;;;5050819;28;20180;-72
2022/08/27 05:28:15;;;;;;;5.35;4.82;;;23.60;76.00;;;;;;5034008;28;20164;-70
2022/08/27 05:30:45;;;;;;;5.72;5.22;;;23.60;75.90;;;;;;5034047;28;20183;-71
2022/08/27 05:33:18;;;;;;;5.45;4.95;;;23.60;76.00;;;;;;5050417;28;20187;-71
2022/08/27 05:35:48;;;;;;;5.20;4.45;;;23.60;76.70;;;;;;5035110;28;20194;-71
2022/08/27 05:38:17;;;;;;;5.35;4.85;;;23.60;76.00;;;;;;5034514;28;20184;-72
2022/08/27 05:40:46;;;;;;;5.93;4.85;;;23.60;76.00;;;;;;5034186;28;20253;-71
2022/08/27 05:43:17;;;;;;;5.55;5.05;;;23.60;76.20;;;;;;5017318;28;20589;-71
2022/08/27 05:45:46;;;;;;;5.35;4.85;;;23.60;76.20;;;;;;5034057;28;20183;-70
2022/08/27 05:48:16;;;;;;;6.07;5.55;;;23.60;76.10;;;;;;5033333;28;20187;-70
2022/08/27 05:50:43;;;;;;;6.03;5.50;;;23.60;76.00;;;;;;5034829;28;20241;-70
2022/08/27 05:53:11;;;;;;;6.07;5.40;;;23.60;76.00;;;;;;5033683;28;20184;-70
2022/08/27 05:55:43;;;;;;;6.10;5.57;;;23.60;76.10;;;;;;5034812;28;20179;-70
2022/08/27 06:01:03;;;;;;;5.45;5.00;;;23.60;76.10;;;;;;5033345;28;20586;-70
2022/08/27 06:01:05;;;;;;;5.80;5.28;;;23.60;76.10;;;;;;5033645;28;20249;-71
2022/08/27 06:03:33;;;;;;;5.82;5.32;;;23.60;76.00;;;;;;5034673;28;20195;-72
2022/08/27 06:06:07;;;;;;;6.03;5.43;;;23.60;76.70;;;;;;5034408;28;20191;-71
2022/08/27 06:08:34;;;;;;;5.75;5.25;;;23.60;76.00;;;;;;5033061;28;20648;-70
2022/08/27 06:11:04;;;;;;;5.53;5.03;;;23.60;76.10;;;;;;5049940;28;20183;-71
2022/08/27 06:13:32;;;;;;;5.82;5.32;;;23.60;76.00;;;;;;5033166;28;20183;-70
2022/08/27 06:16:06;;;;;;;5.65;5.15;;;23.60;76.00;;;;;;5016459;28;20199;-69
2022/08/27 06:18:33;;;;;;;5.65;5.15;;;23.60;75.90;;;;;;5034003;28;20244;-70
2022/08/27 06:20:59;;;;;;;5.38;4.88;;;23.60;75.90;;;;;;5016792;28;20187;-70
2022/08/27 06:23:26;;;;;;;5.93;5.43;;;23.60;75.90;;;;;;5032551;28;20207;-70
2022/08/27 06:25:52;;;;;;;5.95;5.38;;;23.60;75.90;;;;;;5033038;28;20267;-70
2022/08/27 06:28:23;;;;;;;5.95;5.45;;;23.60;75.80;;;;;;5032291;28;20191;-69
2022/08/27 06:30:49;;;;;;;6.43;5.82;;;23.60;75.80;;;;;;5032959;28;20701;-70
2022/08/27 06:33:16;;;;;;;5.90;5.30;;;23.60;75.80;;;;;;5033916;28;20271;-70
2022/08/27 06:35:42;;;;;;;5.97;5.47;;;23.60;75.90;;;;;;5032595;28;20183;-70
2022/08/27 06:38:07;;;;;;;5.93;5.43;;;23.60;75.90;;;;;;5033417;28;20257;-70
2022/08/27 06:40:34;;;;;;;5.32;4.88;;;23.60;75.90;;;;;;5032914;28;20230;-70
2022/08/27 06:43:00;;;;;;;6.07;5.30;;;23.60;76.70;;;;;;5032965;28;20314;-70
2022/08/27 06:45:26;;;;;;;6.05;5.55;;;23.60;76.00;;;;;;5032584;28;20722;-70
2022/08/27 06:47:54;;;;;;;6.00;5.50;;;23.60;76.00;;;;;;5032601;28;20178;-70
2022/08/27 06:50:20;;;;;;;6.30;5.72;;;23.60;76.00;;;;;;5032323;28;20199;-70
2022/08/27 06:52:46;;;;;;;6.05;5.35;;;23.60;76.00;;;;;;5029086;28;20180;-70
2022/08/27 06:55:12;;;;;;;5.30;4.90;;;23.60;76.00;;;;;;5013998;28;20180;-71
2022/08/27 06:57:37;;;;;;;6.05;5.50;;;23.60;76.00;;;;;;5012767;28;20187;-70
2022/08/27 07:00:07;;;;;;;6.63;6.03;;;23.60;76.20;;;;;;5028769;28;20248;-70
2022/08/27 07:02:33;;;;;;;6.20;5.70;;;23.60;76.10;;;;;;5012802;28;20207;-70
2022/08/27 07:04:59;;;;;;;6.22;5.63;;;23.60;76.00;;;;;;5018862;28;20247;-70
2022/08/27 07:07:24;;;;;;;5.72;5.32;;;23.60;76.00;;;;;;5012663;28;20177;-70
2022/08/27 07:09:50;;;;;;;5.60;5.18;;;23.60;76.00;;;;;;5011862;28;20208;-71
2022/08/27 07:12:16;;;;;;;6.15;5.65;;;23.60;76.00;;;;;;5016785;28;20175;-70
2022/08/27 07:14:41;;;;;;;6.18;5.57;;;23.60;76.00;;;;;;5014774;28;20219;-70
2022/08/27 07:17:08;;;;;;;6.32;5.82;;;23.60;76.00;;;;;;5015184;28;20195;-70
2022/08/27 07:19:37;;;;;;;7.00;6.38;;;23.60;76.00;;;;;;5029913;28;20281;-70
2022/08/27 07:22:04;;;;;;;6.93;6.28;;;23.60;76.00;;;;;;5033244;28;20217;-70
2022/08/27 07:24:30;;;;;;;6.43;5.82;;;23.60;76.10;;;;;;5031829;28;20211;-71
2022/08/27 07:26:56;;;;;;;7.25;6.65;;;23.60;76.10;;;;;;5031998;28;20182;-70
2022/08/27 07:29:21;;;;;;;7.22;6.63;;;23.60;76.00;;;;;;5031166;28;20688;-70
2022/08/27 07:31:47;;;;;;;7.63;6.95;;;23.70;76.30;;;;;;5012128;28;20238;-70
2022/08/27 07:34:13;;;;;;;6.65;6.10;;;23.60;76.20;;;;;;5027702;28;20640;-70
2022/08/27 07:36:39;;;;;;;7.40;6.80;;;23.60;76.30;;;;;;4995923;28;20266;-70
2022/08/27 07:39:06;;;;;;;7.13;6.15;;;23.60;76.20;;;;;;5019782;28;20210;-70
2022/08/27 07:44:23;;;;;;;6.85;6.28;;;23.60;76.30;;;;;;5028500;28;20220;-70
2022/08/27 07:44:25;;;;;;;7.38;6.68;;;23.60;76.30;;;;;;5013621;28;20211;-70
2022/08/27 07:46:54;;;;;;;6.50;6.00;;;23.60;76.40;;;;;;5031442;28;20633;-70
2022/08/27 07:49:21;;;;;;;6.78;6.18;;;23.60;76.40;;;;;;5030753;28;20203;-70
2022/08/27 07:51:48;;;;;;;7.47;6.78;;;23.60;76.40;;;;;;5032896;28;20187;-70
2022/08/27 07:54:15;;;;;;;7.53;6.70;;;23.60;76.30;;;;;;5028244;28;20242;-70
2022/08/27 07:56:41;;;;;;;7.63;6.93;;;23.70;76.40;;;;;;5011876;28;20250;-70
2022/08/27 07:59:07;;;;;;;7.43;6.82;;;23.60;76.30;;;;;;5030326;28;20230;-71
2022/08/27 08:01:34;;;;;;;7.43;6.82;;;23.60;76.20;;;;;;5031290;28;20215;-71
2022/08/27 08:04:00;;;;;;;7.57;6.88;;;23.60;76.10;;;;;;5031155;28;20217;-70
2022/08/27 08:06:26;;;;;;;8.18;7.38;;;23.70;76.30;;;;;;5031212;28;20193;-70
2022/08/27 08:08:52;;;;;;;7.57;6.97;;;23.70;76.40;;;;;;5014042;28;20203;-70
2022/08/27 08:11:19;;;;;;;7.82;7.13;;;23.70;76.40;;;;;;5031235;28;20175;-71
2022/08/27 08:13:46;;;;;;;7.20;6.60;;;23.70;76.40;;;;;;5014772;28;20179;-71
2022/08/27 08:16:14;;;;;;;7.63;7.03;;;23.70;76.40;;;;;;5031077;28;20210;-71
2022/08/27 08:18:39;;;;;;;9.02;7.97;;;23.70;76.60;;;;;;5030581;28;20262;-72
2022/08/27 08:21:10;;;;;;;7.90;7.18;;;23.70;76.40;;;;;;5031486;28;20215;-71
2022/08/27 08:23:37;;;;;;;8.55;7.10;;;23.70;76.70;;;;;;5029322;28;20207;-70
2022/08/27 08:26:04;;;;;;;8.02;7.32;;;23.70;76.60;;;;;;5010987;28;20722;-71
2022/08/27 08:28:30;;;;;;;8.05;7.35;;;23.70;76.90;;;;;;5027578;28;20249;-70
2022/08/27 08:30:57;;;;;;;8.32;7.53;;;23.70;76.70;;;;;;5014662;28;20214;-71
2022/08/27 08:33:24;;;;;;;7.93;7.22;;;23.70;76.90;;;;;;5029409;28;20191;-71
2022/08/27 08:35:50;;;;;;;7.85;7.15;;;23.70;76.90;;;;;;5028087;28;20577;-70
2022/08/27 08:38:17;;;;;;;8.55;7.82;;;23.70;76.90;;;;;;5030354;28;20179;-70
2022/08/27 08:40:52;;;;;;;7.97;7.30;;;23.70;76.90;;;;;;5031917;28;20191;-71
2022/08/27 08:43:34;;;;;;;8.60;7.80;;;23.70;76.90;;;;;;5032196;28;20281;-71
2022/08/27 08:46:21;;;;;;;8.80;8.00;;;23.70;76.90;;;;;;5031586;28;20183;-71
2022/08/27 08:48:54;;;;;;;9.07;8.27;;;23.70;76.90;;;;;;5035267;28;20206;-71
2022/08/27 08:51:39;;;;;;;8.75;7.95;;;23.70;77.00;;;;;;5034777;28;20170;-71
2022/08/27 08:54:12;;;;;;;8.57;7.88;;;23.70;76.90;;;;;;5034929;28;20198;-71
2022/08/27 08:56:44;;;;;;;8.60;7.90;;;23.70;76.90;;;;;;5035102;28;20179;-71
2022/08/27 08:59:23;;;;;;;8.85;8.15;;;23.70;77.00;;;;;;5017792;28;20210;-71
2022/08/27 09:01:49;;;;;;;8.85;8.05;;;23.70;77.70;;;;;;5035802;28;20167;-72
2022/08/27 09:04:15;;;;;;;8.10;7.43;;;23.70;76.90;;;;;;5018499;28;20222;-71
2022/08/27 09:06:56;;;;;;;8.30;7.60;;;23.70;76.90;;;;;;5034562;28;20198;-72
2022/08/27 09:09:31;;;;;;;8.35;7.68;;;23.70;76.90;;;;;;5035323;28;20289;-71
2022/08/27 09:12:07;;;;;;;8.57;7.85;;;23.70;77.00;;;;;;5034963;28;20159;-71
2022/08/27 09:14:57;;;;;;;9.35;8.55;;;23.70;77.00;;;;;;5035696;28;20206;-71
2022/08/27 09:17:23;;;;;;;9.13;8.32;;;23.70;77.00;;;;;;5035396;28;20191;-71
2022/08/27 09:19:49;;;;;;;9.10;8.23;;;23.70;76.90;;;;;;5033508;28;20314;-70
2022/08/27 09:22:20;;;;;;;9.80;9.00;;;23.80;77.00;;;;;;5030570;28;20242;-71
2022/08/27 09:25:26;;;;;;;9.15;8.35;;;23.70;77.00;;;;;;5034220;28;20218;-71
2022/08/27 09:27:59;;;;;;;8.98;8.20;;;23.70;77.00;;;;;;5032588;28;20191;-71
2022/08/27 09:30:30;;;;;;;9.85;9.05;;;23.70;77.00;;;;;;5035128;28;20199;-70
2022/08/27 09:33:00;;;;;;;9.57;8.73;;;23.80;77.00;;;;;;5034060;28;20191;-70
2022/08/27 09:35:38;;;;;;;8.98;8.18;;;23.70;77.20;;;;;;5017902;28;20189;-71
2022/08/27 09:38:04;;;;;;;9.20;8.40;;;23.70;77.40;;;;;;5034506;28;20190;-70
2022/08/27 09:40:45;;;;;;;9.40;8.60;;;23.70;77.30;;;;;;5016935;28;20282;-70
2022/08/27 09:43:25;;;;;;;10.05;9.15;;;23.70;77.30;;;;;;5014168;28;20200;-71
2022/08/27 09:46:00;;;;;;;10.10;9.23;;;23.80;77.80;;;;;;5013963;28;20658;-71
2022/08/27 09:48:31;;;;;;;10.77;9.77;;;23.80;77.50;;;;;;5013359;28;20207;-71
2022/08/27 09:51:08;;;;;;;9.73;8.90;;;23.80;77.40;;;;;;5014383;28;20191;-71
2022/08/27 09:53:59;;;;;;;10.55;9.65;;;23.80;77.60;;;;;;5015272;28;20176;-71
2022/08/27 09:56:34;;;;;;;9.95;9.05;;;23.80;77.40;;;;;;5029459;28;20721;-71
2022/08/27 09:59:23;;;;;;;10.90;10.00;;;23.80;77.40;;;;;;5016181;28;20210;-71
2022/08/27 10:02:12;;;;;;;10.07;9.18;;;23.80;77.60;;;;;;5033535;28;20184;-72
2022/08/27 10:04:47;;;;;;;10.48;9.63;;;23.80;77.70;;;;;;5034827;28;20195;-71
2022/08/27 10:07:58;;;;;;;10.60;9.70;;;23.80;77.70;;;;;;5033546;28;20245;-71
2022/08/27 10:11:09;;;;;;;11.23;10.25;;;23.80;77.90;;;;;;5033129;28;20207;-70
2022/08/27 10:14:02;;;;;;;11.15;10.15;;;23.80;77.70;;;;;;5012554;28;20200;-71
2022/08/27 10:17:19;;;;;;;11.45;10.45;;;23.80;77.60;;;;;;5033273;28;20211;-71
2022/08/27 10:20:21;;;;;;;10.90;10.00;;;23.80;78.00;;;;;;5018813;28;20281;-70
2022/08/27 10:23:16;;;;;;;11.63;10.57;;;23.80;77.80;;;;;;5034177;28;20171;-70
2022/08/27 10:26:09;;;;;;;11.43;10.35;;;23.80;78.00;;;;;;5033044;28;20188;-70
2022/08/27 10:29:01;;;;;;;10.88;9.93;;;23.80;78.60;;;;;;5032895;28;20247;-70
2022/08/27 10:32:13;;;;;;;11.27;10.18;;;23.80;78.20;;;;;;5028403;28;20184;-70
2022/08/27 10:34:52;;;;;;;10.57;9.60;;;23.80;78.30;;;;;;5034168;28;20213;-70
2022/08/27 10:37:41;;;;;;;11.85;10.65;;;23.80;78.60;;;;;;5032967;28;20179;-70
2022/08/27 10:40:24;;;;;;;11.32;10.32;;;23.80;78.70;;;;;;5032193;28;20227;-70
2022/08/27 10:43:59;;;;;;;11.23;10.25;;;23.80;78.60;;;;;;5032833;28;20219;-70
2022/08/27 10:47:10;;;;;;;11.65;10.40;;;23.90;78.40;;;;;;5032487;28;20183;-71
2022/08/27 10:50:26;;;;;;;11.27;10.23;;;23.90;78.50;;;;;;5032096;28;20211;-70
2022/08/27 10:53:15;;;;;;;11.40;10.38;;;23.90;78.50;;;;;;5002251;28;20207;-72
2022/08/27 10:55:51;;;;;;;11.13;10.15;;;23.90;78.40;;;;;;5012885;28;20234;-71
2022/08/27 10:58:38;;;;;;;10.52;9.60;;;23.90;79.50;;;;;;5001789;28;20183;-71
2022/08/27 11:01:28;;;;;;;11.05;10.15;;;23.90;78.70;;;;;;5026198;28;20186;-71
2022/08/27 11:04:23;;;;;;;10.90;10.00;;;23.90;78.60;;;;;;5032532;28;20211;-71
2022/08/27 11:07:03;;;;;;;11.45;10.38;;;23.90;78.40;;;;;;5031923;28;20195;-71
2022/08/27 11:09:48;;;;;;;10.73;9.90;;;23.90;78.80;;;;;;5030662;28;20242;-71
2022/08/27 11:12:27;;;;;;;10.60;9.60;;;23.90;78.90;;;;;;5033321;28;20179;-71
2022/08/27 11:14:57;;;;;;;10.95;9.95;;;23.90;78.90;;;;;;5032240;28;20175;-71
2022/08/27 11:17:37;;;;;;;11.40;10.40;;;23.90;79.20;;;;;;5032140;28;20199;-72
2022/08/27 11:20:28;;;;;;;10.68;9.77;;;23.90;79.30;;;;;;5031706;28;20253;-70
2022/08/27 11:23:10;;;;;;;11.98;10.88;;;23.80;78.80;;;;;;5048889;28;20659;-70
2022/08/27 11:25:59;;;;;;;11.57;10.57;;;23.90;78.80;;;;;;5031808;28;20687;-69
2022/08/27 11:28:38;;;;;;;11.10;10.07;;;23.90;79.20;;;;;;5031654;28;20293;-70
2022/08/27 11:31:19;;;;;;;10.70;9.80;;;23.90;79.20;;;;;;5033063;28;20194;-70
2022/08/27 11:34:14;;;;;;;11.40;10.35;;;23.80;79.30;;;;;;5015123;28;20237;-70
2022/08/27 11:37:21;;;;;;;11.15;10.13;;;23.90;79.40;;;;;;5032979;28;20176;-70
2022/08/27 11:40:09;;;;;;;10.55;9.55;;;23.80;79.30;;;;;;5030850;28;20214;-70
2022/08/27 11:42:48;;;;;;;10.48;9.48;;;23.90;79.30;;;;;;5031561;28;20191;-70
2022/08/27 11:45:27;;;;;;;9.75;8.95;;;23.80;79.40;;;;;;5048325;28;20182;-69
2022/08/27 11:47:56;;;;;;;11.07;9.98;;;23.80;79.40;;;;;;5031728;28;20237;-70
2022/08/27 11:50:25;;;;;;;10.25;9.32;;;23.80;79.40;;;;;;5032258;28;20204;-70
2022/08/27 11:52:57;;;;;;;10.70;9.80;;;23.80;79.50;;;;;;5031646;28;20255;-70
2022/08/27 11:55:35;;;;;;;10.35;9.45;;;23.80;79.50;;;;;;5032481;28;20215;-70
2022/08/27 11:58:28;;;;;;;11.23;10.23;;;23.80;79.40;;;;;;5012003;28;20271;-70
2022/08/27 12:00:55;;;;;;;10.57;9.68;;;23.80;79.50;;;;;;5011756;28;20207;-70
2022/08/27 12:03:20;;;;;;;10.40;9.50;;;23.80;79.70;;;;;;5011407;28;20219;-70
2022/08/27 12:05:52;;;;;;;9.85;8.98;;;23.90;79.70;;;;;;5011811;28;20184;-70
2022/08/27 12:08:21;;;;;;;10.32;9.35;;;23.80;79.60;;;;;;5011632;28;20625;-70
2022/08/27 12:11:10;;;;;;;10.15;9.30;;;23.80;79.70;;;;;;5027446;28;20184;-70
2022/08/27 12:13:55;;;;;;;10.30;9.40;;;23.80;79.90;;;;;;5027879;28;20246;-70
2022/08/27 12:16:46;;;;;;;10.02;9.23;;;23.90;79.90;;;;;;5011721;28;20600;-70
2022/08/27 12:19:44;;;;;;;9.85;9.05;;;23.90;79.90;;;;;;5027704;28;20214;-69
2022/08/27 12:23:38;;;;;;;10.02;9.15;;;23.90;79.90;;;;;;5011065;28;20229;-70
2022/08/27 12:25:23;;;;;;;10.30;9.40;;;23.80;80.10;;;;;;5026687;28;20579;-70
2022/08/27 12:28:03;;;;;;;9.90;9.10;;;23.80;80.10;;;;;;5032169;28;20191;-70
2022/08/27 12:30:33;;;;;;;9.73;8.88;;;23.80;80.00;;;;;;5031770;28;20261;-70
2022/08/27 12:33:12;;;;;;;9.70;8.90;;;23.80;79.90;;;;;;5030965;28;20188;-69
2022/08/27 12:35:50;;;;;;;8.73;8.02;;;23.80;80.00;;;;;;5030933;28;20229;-70
2022/08/27 12:38:31;;;;;;;9.13;8.38;;;23.80;80.20;;;;;;5031017;28;20183;-70
2022/08/27 12:40:59;;;;;;;9.27;8.38;;;23.80;80.30;;;;;;5031011;28;20233;-69
2022/08/27 12:43:34;;;;;;;8.55;7.78;;;23.80;79.90;;;;;;5030991;28;20217;-70
2022/08/27 12:46:06;;;;;;;8.27;7.57;;;23.80;79.70;;;;;;4999118;28;20213;-69
2022/08/27 12:48:54;;;;;;;8.25;7.55;;;23.80;79.50;;;;;;5030104;28;20203;-70
2022/08/27 12:51:32;;;;;;;8.02;7.43;;;23.80;79.50;;;;;;5032205;28;20193;-70
2022/08/27 12:54:09;;;;;;;8.13;7.50;;;23.80;79.40;;;;;;5013961;28;20209;-70
2022/08/27 12:57:11;;;;;;;8.00;7.20;;;23.80;79.40;;;;;;5030647;28;20193;-70
2022/08/27 12:59:53;;;;;;;7.95;7.30;;;23.80;79.50;;;;;;5031458;28;20282;-70
2022/08/27 13:02:40;;;;;;;7.75;7.05;;;23.80;79.50;;;;;;5014075;28;20205;-70
2022/08/27 13:05:10;;;;;;;7.47;6.88;;;23.80;79.40;;;;;;5031020;28;20176;-70
2022/08/27 13:07:43;;;;;;;7.03;6.53;;;23.80;79.40;;;;;;5031971;28;20651;-70
2022/08/27 13:10:30;;;;;;;6.47;5.97;;;23.80;79.40;;;;;;5030035;28;20294;-70
2022/08/27 13:13:12;;;;;;;6.43;5.88;;;23.80;79.40;;;;;;5030799;28;20171;-70
2022/08/27 13:15:52;;;;;;;6.85;6.32;;;23.80;79.50;;;;;;5014431;28;20188;-71